Aérodrome :
LOGIN :

S'inscrire | Disclaimer

   EN    FR    IT 

 










Légende :    VFR   VFR Marginal   IFR   IFR Intensif   IFR Très Intensif
Visi : 
Plafond : 
>= 8 km
>= 3000ft
5 à 8 km
1000 à 3000 ft
1500m à 5 km
500 à 1000 ft
800 à 1500m
200 à 500 ft
< 800m
< 200 ft
Symboles :   Orages  Brouillard  Fortes neiges  Fortes précipitations  Vent > 20 kt
SIGMETs :   Divers  Orages  Givrage  Turbulence  Onde Orograph.  Cendres Volcan.







- Altitude de l'aérodrome : 529 ft
- Code IATA : CHR
- Voir les cartes d'approche


LFLX - Chateauroux

DERNIER METAR :
  • 130400Z AUTO 21007KT 9999 FEW021 OVC130 10/09 Q1025 TEMPO 4000 BR BKN004

METARs EXPIRÉS :
  • 130330Z AUTO 22007KT 9999 FEW023 OVC130 10/09 Q1024 TEMPO 4000 BR BKN004
  • 130300Z AUTO 21007KT 9999 FEW032 OVC130 10/09 Q1024 TEMPO 4000 BR BKN004
  • 130230Z AUTO 22004KT CAVOK 10/09 Q1024 TEMPO 4000 BR BKN004
  • 130200Z AUTO 19004KT 160V220 CAVOK 10/10 Q1023 TEMPO BKN009
  • 130130Z AUTO 18005KT CAVOK 10/09 Q1023 TEMPO BKN009

TAF TAF LFLX
Valide du 13 à 00h jusqu'au 14 à 06h UTC


122300Z 1300/1406 20005KT 9999 BKN016 BKN040
TEMPO 1300/1304 6000 -RA BKN009
TEMPO 1304/1311 4000 BR BKN004
BECMG 1312/1315 CAVOK
BECMG 1318/1321 4000 BR SCT003
BECMG 1321/1324 2000 BR BKN003
TEMPO 1400/1406 0400 FG VV///
Pas de NOTAMs connus pour ce terrain.



MET'MAP, la Météo Aéronautique d'un coup d'oeil ! - Copyright ORBIFLY Décembre 2007 - Disclaimer

ORBIFLY MET'MAP TEAM :

Programmation & Développement : Alexandra Zaïnal
Conception & Développement : Baudouin d'Aumeries
Co-Programmation & Développement : Marc-Olivier Méhu
Soutien technique & logistique : Manuel Goepfert

Contact : metmap@orbifly.com




SOURCES & CREDITS :

   NOAA